Time;durP1;ratioP1;P1;durP2;ratioP2;P2;SDS_P1;SDS_P2;PMS_P1;PMS_P2;Temp;Humidity;BMP_temperature;BMP_pressure;BME280_temperature;BME280_humidity;BME280_pressure;Samples;Min_cycle;Max_cycle;Signal;HPM_P1;HPM_P2
2022/05/02 00:00:33;;;;;;;;;;;;;;;;;;6207585;23;19931;-52
2022/05/02 00:02:59;;;;;;;;;;;;;;;;;;6208564;23;19954;-51
2022/05/02 00:05:26;;;;;;;;;;;;;;;;;;6208330;23;19969;-52
2022/05/02 00:07:52;;;;;;;;;;;;;;;;;;6207654;23;20222;-51
2022/05/02 00:10:18;;;;;;;;;;;;;;;;;;6207818;23;19906;-51
2022/05/02 00:12:44;;;;;;;;;;;;;;;;;;6207639;23;19962;-50
2022/05/02 00:15:09;;;;;;;;;;;;;;;;;;6208237;23;19957;-50
2022/05/02 00:20:20;;;;;;;;;;;;;;;;;;6207460;23;19910;-51
2022/05/02 00:22:47;;;;;;;;;;;;;;;;;;6208034;23;19900;-50
2022/05/02 00:25:13;;;;;;;;;;;;;;;;;;6208059;23;19998;-51
2022/05/02 00:27:39;;;;;;;;;;;;;;;;;;6207084;23;20356;-51
2022/05/02 00:30:05;;;;;;;;;;;;;;;;;;6207890;23;19907;-52
2022/05/02 00:32:31;;;;;;;;;;;;;;;;;;6207192;23;19946;-49
2022/05/02 00:34:57;;;;;;;;;;;;;;;;;;6208801;23;19903;-51
2022/05/02 00:37:23;;;;;;;;;;;;;;;;;;6207301;23;19962;-48
2022/05/02 00:39:48;;;;;;;;;;;;;;;;;;6207889;23;19942;-52
2022/05/02 00:42:14;;;;;;;;;;;;;;;;;;6208130;23;19907;-53
2022/05/02 00:44:40;;;;;;;;;;;;;;;;;;6207601;23;19906;-51
2022/05/02 00:47:06;;;;;;;;;;;;;;;;;;6207190;23;19904;-53
2022/05/02 00:49:32;;;;;;;;;;;;;;;;;;6207365;23;19899;-50
2022/05/02 00:51:58;;;;;;;;;;;;;;;;;;6208452;23;19941;-50
2022/05/02 00:54:24;;;;;;;;;;;;;;;;;;6207757;23;19903;-53
2022/05/02 00:56:50;;;;;;;;;;;;;;;;;;6207262;23;19931;-51
2022/05/02 00:59:16;;;;;;;;;;;;;;;;;;6207618;23;19907;-51
2022/05/02 01:01:42;;;;;;;;;;;;;;;;;;6207383;23;19904;-52
2022/05/02 01:04:08;;;;;;;;;;;;;;;;;;6207345;23;19907;-52
2022/05/02 01:09:18;;;;;;;;;;;;;;;;;;6207405;23;19910;-51
2022/05/02 01:11:44;;;;;;;;;;;;;;;;;;6207318;23;19978;-51
2022/05/02 01:14:10;;;;;;;;;;;;;;;;;;6205280;23;19904;-52
2022/05/02 01:16:36;;;;;;;;;;;;;;;;;;6206988;23;20392;-50
2022/05/02 01:19:02;;;;;;;;;;;;;;;;;;6207593;23;19950;-52
2022/05/02 01:21:30;;;;;;;;;;;;;;;;;;6208098;23;19954;-52
2022/05/02 01:23:56;;;;;;;;;;;;;;;;;;6207617;23;20390;-52
2022/05/02 01:26:22;;;;;;;;;;;;;;;;;;6206582;23;19938;-51
2022/05/02 01:28:48;;;;;;;;;;;;;;;;;;6207355;23;19973;-52
2022/05/02 01:31:14;;;;;;;;;;;;;;;;;;6207617;23;19911;-52
2022/05/02 01:33:41;;;;;;;1.47;1.30;;;;;;;;;;6205184;23;20355;-50
2022/05/02 01:36:07;;;;;;;1.42;1.33;;;;;;;;;;6206900;23;20059;-50
2022/05/02 01:38:33;;;;;;;1.98;1.30;;;;;;;;;;6206663;23;20001;-50
2022/05/02 01:40:59;;;;;;;1.75;1.55;;;;;;;;;;6207821;23;20027;-50
2022/05/02 01:43:27;;;;;;;1.70;1.60;;;;;;;;;;6206246;23;20005;-48
2022/05/02 01:45:54;;;;;;;1.75;1.58;;;;;;;;;;6205688;23;20005;-48
2022/05/02 01:48:20;;;;;;;2.00;1.70;;;;;;;;;;6206224;23;20357;-51
2022/05/02 01:50:46;;;;;;;2.17;1.70;;;;;;;;;;6206241;23;20008;-49
2022/05/02 01:53:12;;;;;;;1.73;1.60;;;;;;;;;;6207143;23;20016;-50
2022/05/02 01:55:38;;;;;;;2.65;1.73;;;;;;;;;;6206472;23;20011;-50
2022/05/02 01:58:04;;;;;;;1.75;1.55;;;;;;;;;;6206279;23;20497;-52
2022/05/02 02:00:30;;;;;;;1.67;1.58;;;;;;;;;;6206275;23;19997;-50
2022/05/02 02:02:56;;;;;;;1.63;1.45;;;;;;;;;;6205918;23;20434;-48
2022/05/02 02:08:07;;;;;;;1.83;1.50;;;;;;;;;;6206625;23;20092;-50
2022/05/02 02:10:33;;;;;;;1.70;1.33;;;;;;;;;;6206062;23;20100;-47
2022/05/02 02:12:59;;;;;;;2.35;1.90;;;;;;;;;;6205247;23;20445;-51
2022/05/02 02:15:25;;;;;;;1.55;1.45;;;;;;;;;;6204581;23;20478;-49
2022/05/02 02:17:52;;;;;;;2.10;1.88;;;;;;;;;;6205108;23;20366;-49
2022/05/02 02:20:19;;;;;;;2.03;1.70;;;;;;;;;;6206237;23;19996;-52
2022/05/02 02:22:46;;;;;;;1.98;1.50;;;;;;;;;;6206093;23;20036;-51
2022/05/02 02:25:12;;;;;;;1.92;1.40;;;;;;;;;;6206901;23;20008;-52
2022/05/02 02:27:38;;;;;;;2.22;1.40;;;;;;;;;;6206193;23;20382;-50
2022/05/02 02:30:04;;;;;;;1.73;1.58;;;;;;;;;;6206574;23;20338;-50
2022/05/02 02:32:31;;;;;;;1.80;1.70;;;;;;;;;;6206798;23;20009;-48
2022/05/02 02:34:57;;;;;;;2.95;1.58;;;;;;;;;;6207331;23;20039;-51
2022/05/02 02:37:23;;;;;;;3.13;1.48;;;;;;;;;;6206246;23;20004;-50
2022/05/02 02:39:49;;;;;;;2.00;1.60;;;;;;;;;;6206009;23;20445;-51
2022/05/02 02:42:16;;;;;;;2.33;1.63;;;;;;;;;;6206333;23;20019;-50
2022/05/02 02:44:41;;;;;;;1.88;1.60;;;;;;;;;;6206002;23;20088;-49
2022/05/02 02:47:07;;;;;;;2.00;1.80;;;;;;;;;;6206466;23;20086;-51
2022/05/02 02:49:34;;;;;;;2.45;1.85;;;;;;;;;;6206485;23;20399;-50
2022/05/02 02:52:00;;;;;;;1.70;1.60;;;;;;;;;;6206210;23;20446;-52
2022/05/02 02:54:26;;;;;;;1.98;1.70;;;;;;;;;;6205903;23;20012;-47
2022/05/02 02:56:52;;;;;;;1.88;1.65;;;;;;;;;;6179762;23;20009;-49
2022/05/02 02:59:19;;;;;;;1.80;1.58;;;;;;;;;;6204646;23;20001;-52
2022/05/02 03:01:46;;;;;;;1.80;1.67;;;;;;;;;;6205669;23;20028;-50
2022/05/02 03:06:56;;;;;;;;;;;;;;;;;;6206964;23;19958;-50
2022/05/02 03:09:22;;;;;;;;;;;;;;;;;;6206313;23;19903;-53
2022/05/02 03:11:48;;;;;;;;;;;;;;;;;;6206579;23;19907;-51
2022/05/02 03:14:14;;;;;;;;;;;;;;;;;;6206822;23;19908;-52
2022/05/02 03:16:40;;;;;;;;;;;;;;;;;;6206312;23;19904;-51
2022/05/02 03:19:06;;;;;;;;;;;;;;;;;;6206488;23;20105;-52
2022/05/02 03:21:32;;;;;;;;;;;;;;;;;;6206479;23;19929;-53
2022/05/02 03:23:58;;;;;;;;;;;;;;;;;;6207560;23;19958;-51
2022/05/02 03:26:24;;;;;;;;;;;;;;;;;;6206386;23;19923;-51
2022/05/02 03:28:49;;;;;;;;;;;;;;;;;;6207385;23;19943;-49
2022/05/02 03:31:15;;;;;;;;;;;;;;;;;;6205944;23;19904;-52
2022/05/02 03:33:41;;;;;;;;;;;;;;;;;;6206603;23;19949;-50
2022/05/02 03:36:08;;;;;;;;;;;;;;;;;;6206888;23;19900;-49
2022/05/02 03:38:34;;;;;;;;;;;;;;;;;;6206383;23;19900;-52
2022/05/02 03:41:00;;;;;;;;;;;;;;;;;;6207256;23;19903;-52
2022/05/02 03:43:26;;;;;;;;;;;;;;;;;;6205696;23;20284;-51
2022/05/02 03:45:53;;;;;;;;;;;;;;;;;;6206447;23;20319;-51
2022/05/02 03:48:19;;;;;;;;;;;;;;;;;;6206380;23;19900;-51
2022/05/02 03:50:44;;;;;;;;;;;;;;;;;;6206441;23;20340;-51
2022/05/02 03:53:10;;;;;;;;;;;;;;;;;;6205970;23;20245;-48
2022/05/02 03:55:37;;;;;;;;;;;;;;;;;;6206216;23;19927;-49
2022/05/02 03:58:04;;;;;;;;;;;;;;;;;;6206552;23;19924;-51
2022/05/02 04:00:30;;;;;;;;;;;;;;;;;;6206216;23;19954;-51
2022/05/02 04:02:56;;;;;;;;;;;;;;;;;;6206131;23;19908;-52
2022/05/02 04:05:23;;;;;;;;;;;;;;;;;;6205582;23;19904;-49
2022/05/02 04:07:49;;;;;;;;;;;;;;;;;;6206304;23;19922;-50
2022/05/02 04:10:15;;;;;;;;;;;;;;;;;;6206548;23;19986;-52
2022/05/02 04:12:42;;;;;;;;;;;;;;;;;;6206100;23;19990;-52
2022/05/02 04:15:11;;;;;;;;;;;;;;;;;;6206093;23;20245;-50
2022/05/02 04:17:37;;;;;;;;;;;;;;;;;;6205845;23;19908;-51
2022/05/02 04:20:03;;;;;;;;;;;;;;;;;;6206468;23;19900;-51
2022/05/02 04:22:29;;;;;;;;;;;;;;;;;;6206679;23;20289;-52
2022/05/02 04:24:54;;;;;;;;;;;;;;;;;;6205200;23;20248;-52
2022/05/02 04:27:20;;;;;;;;;;;;;;;;;;6205859;23;20325;-53
2022/05/02 04:29:46;;;;;;;;;;;;;;;;;;6205676;23;19978;-50
2022/05/02 04:32:13;;;;;;;;;;;;;;;;;;6206226;23;19922;-51
2022/05/02 04:34:39;;;;;;;;;;;;;;;;;;6205623;23;19900;-49
2022/05/02 04:37:06;;;;;;;;;;;;;;;;;;6206274;23;20324;-52
2022/05/02 04:39:32;;;;;;;;;;;;;;;;;;6204980;23;19997;-49
2022/05/02 04:41:58;;;;;;;;;;;;;;;;;;6205742;23;19903;-51
2022/05/02 04:44:24;;;;;;;;;;;;;;;;;;6205514;23;19911;-50
2022/05/02 04:46:50;;;;;;;;;;;;;;;;;;6206020;23;20424;-52
2022/05/02 04:49:16;;;;;;;;;;;;;;;;;;6206204;23;20060;-51
2022/05/02 04:51:42;;;;;;;;;;;;;;;;;;6205697;23;19900;-51
2022/05/02 04:54:09;;;;;;;;;;;;;;;;;;6205816;23;19930;-48
2022/05/02 04:56:35;;;;;;;;;;;;;;;;;;6205134;23;19904;-51
2022/05/02 04:59:01;;;;;;;;;;;;;;;;;;6206210;23;19904;-51
2022/05/02 05:01:26;;;;;;;;;;;;;;;;;;6205539;23;19910;-50
2022/05/02 05:03:52;;;;;;;;;;;;;;;;;;6205389;23;19911;-52
2022/05/02 05:06:18;;;;;;;;;;;;;;;;;;6205729;23;20324;-51
2022/05/02 05:08:44;;;;;;;;;;;;;;;;;;6205118;23;20333;-51
2022/05/02 05:11:10;;;;;;;;;;;;;;;;;;6205746;23;19908;-52
2022/05/02 05:13:37;;;;;;;;;;;;;;;;;;6204273;23;20264;-52
2022/05/02 05:16:21;;;;;;;;;;;;;;;;;;6205707;23;20310;-51
2022/05/02 05:18:47;;;;;;;;;;;;;;;;;;6206849;23;19946;-51
2022/05/02 05:21:13;;;;;;;;;;;;;;;;;;6207508;23;19900;-51
2022/05/02 05:23:39;;;;;;;;;;;;;;;;;;6207035;23;19903;-51
2022/05/02 05:26:07;;;;;;;;;;;;;;;;;;6207402;23;20468;-51
2022/05/02 05:28:33;;;;;;;;;;;;;;;;;;6206723;23;19949;-50
2022/05/02 05:30:59;;;;;;;;;;;;;;;;;;6208225;23;19904;-51
2022/05/02 05:33:27;;;;;;;;;;;;;;;;;;6207184;23;19904;-51
2022/05/02 05:35:53;;;;;;;;;;;;;;;;;;6207127;23;19903;-51
2022/05/02 05:38:19;;;;;;;;;;;;;;;;;;6206899;23;19978;-51
2022/05/02 05:40:47;;;;;;;;;;;;;;;;;;6207443;23;19908;-50
2022/05/02 05:43:13;;;;;;;;;;;;;;;;;;6206659;23;19900;-51
2022/05/02 05:45:39;;;;;;;;;;;;;;;;;;6207469;23;19907;-52
2022/05/02 05:48:05;;;;;;;;;;;;;;;;;;6207655;23;19900;-51
2022/05/02 05:50:30;;;;;;;;;;;;;;;;;;6206987;23;19926;-51
2022/05/02 05:52:56;;;;;;;;;;;;;;;;;;6207817;23;19966;-50
2022/05/02 05:55:23;;;;;;;;;;;;;;;;;;6208340;23;19979;-51
2022/05/02 05:57:50;;;;;;;;;;;;;;;;;;6209013;23;19907;-50
2022/05/02 06:00:16;;;;;;;;;;;;;;;;;;6209314;23;19907;-52
2022/05/02 06:02:42;;;;;;;;;;;;;;;;;;6209290;23;19923;-52
2022/05/02 06:05:09;;;;;;;;;;;;;;;;;;6209538;23;19907;-51
2022/05/02 06:07:35;;;;;;;;;;;;;;;;;;6208530;23;20325;-51
2022/05/02 06:10:01;;;;;;;;;;;;;;;;;;6209044;23;20030;-51
2022/05/02 06:12:27;;;;;;;;;;;;;;;;;;6210101;23;19946;-51
2022/05/02 06:20:22;;;;;;;;;;;;;;;;;;6208418;23;19911;-51
2022/05/02 06:22:48;;;;;;;;;;;;;;;;;;6209065;23;20430;-50
2022/05/02 06:25:14;;;;;;;;;;;;;;;;;;6209207;23;19995;-51
2022/05/02 06:27:40;;;;;;;;;;;;;;;;;;6208522;23;19899;-50
2022/05/02 06:30:06;;;;;;;;;;;;;;;;;;6208287;23;19953;-51
2022/05/02 06:32:32;;;;;;;;;;;;;;;;;;6208601;23;19915;-51
2022/05/02 06:34:58;;;;;;;;;;;;;;;;;;6209672;23;19900;-50
2022/05/02 06:37:24;;;;;;;;;;;;;;;;;;6208652;23;19910;-52
2022/05/02 06:39:50;;;;;;;;;;;;;;;;;;6208294;23;19900;-52
2022/05/02 06:42:16;;;;;;;;;;;;;;;;;;6208520;23;20257;-51
2022/05/02 06:44:42;;;;;;;;;;;;;;;;;;6208252;23;19998;-51
2022/05/02 06:47:08;;;;;;;;;;;;;;;;;;6206734;23;19991;-52
2022/05/02 06:49:34;;;;;;;;;;;;;;;;;;6206238;23;19947;-49
2022/05/02 06:52:00;;;;;;;;;;;;;;;;;;6208993;23;19904;-51
2022/05/02 06:54:25;;;;;;;;;;;;;;;;;;6182590;23;20249;-52
2022/05/02 06:56:51;;;;;;;;;;;;;;;;;;6208759;23;19904;-51
2022/05/02 06:59:17;;;;;;;;;;;;;;;;;;6208154;23;19903;-50
2022/05/02 07:01:43;;;;;;;;;;;;;;;;;;6208402;23;20360;-52
2022/05/02 07:04:09;;;;;;;;;;;;;;;;;;6207920;23;19954;-51
2022/05/02 07:06:36;;;;;;;;;;;;;;;;;;6207645;23;19912;-52
2022/05/02 07:09:03;;;;;;;;;;;;;;;;;;6208417;23;19977;-52
2022/05/02 07:11:29;;;;;;;;;;;;;;;;;;6207150;23;20418;-52
2022/05/02 07:13:54;;;;;;;;;;;;;;;;;;6208597;23;19904;-51
2022/05/02 07:16:21;;;;;;;;;;;;;;;;;;6207735;23;19899;-52
2022/05/02 07:18:47;;;;;;;;;;;;;;;;;;6208603;23;19908;-51
2022/05/02 07:21:13;;;;;;;;;;;;;;;;;;6208746;23;19910;-52
2022/05/02 07:23:39;;;;;;;;;;;;;;;;;;6206808;23;19954;-58
2022/05/02 07:26:05;;;;;;;;;;;;;;;;;;6208776;23;19900;-58
2022/05/02 07:28:31;;;;;;;;;;;;;;;;;;6206153;23;19904;-58
2022/05/02 07:30:57;;;;;;;;;;;;;;;;;;6206711;23;19971;-58
2022/05/02 07:33:23;;;;;;;;;;;;;;;;;;6206283;23;19915;-58
2022/05/02 07:35:49;;;;;;;;;;;;;;;;;;6205376;23;19900;-58
2022/05/02 07:38:14;;;;;;;;;;;;;;;;;;6181541;23;19922;-58
2022/05/02 07:41:22;;;;;;;;;;;;;;;;;;6208400;23;19899;-58
2022/05/02 07:43:28;;;;;;;;;;;;;;;;;;6207109;23;19904;-58
2022/05/02 07:45:54;;;;;;;;;;;;;;;;;;6206846;23;19910;-58
2022/05/02 07:48:21;;;;;;;;;;;;;;;;;;6206496;23;20396;-58
2022/05/02 07:50:47;;;;;;;;;;;;;;;;;;6208718;23;19903;-58
2022/05/02 07:53:13;;;;;;;;;;;;;;;;;;6209575;23;20356;-58
2022/05/02 07:55:39;;;;;;;;;;;;;;;;;;6209921;23;19923;-58
2022/05/02 07:58:05;;;;;;;;;;;;;;;;;;6209117;23;19900;-58
2022/05/02 08:00:31;;;;;;;;;;;;;;;;;;6208961;23;19907;-58
2022/05/02 08:02:57;;;;;;;;;;;;;;;;;;6209411;23;19927;-58
2022/05/02 08:05:23;;;;;;;;;;;;;;;;;;6208854;23;19946;-58
2022/05/02 08:07:51;;;;;;;;;;;;;;;;;;6209103;23;19918;-58
2022/05/02 08:10:17;;;;;;;;;;;;;;;;;;6208761;23;19911;-58
2022/05/02 08:12:42;;;;;;;;;;;;;;;;;;6208292;23;20329;-58
2022/05/02 08:15:11;;;;;;;;;;;;;;;;;;6208798;23;20344;-58
2022/05/02 08:17:37;;;;;;;;;;;;;;;;;;6207472;23;19941;-58
2022/05/02 08:20:05;;;;;;;;;;;;;;;;;;6207733;23;19904;-58
2022/05/02 08:28:11;;;;;;;;;;;;;;;;;;6126769;23;19956;-58
2022/05/02 08:30:39;;;;;;;;;;;;;;;;;;6207547;23;19908;-58
2022/05/02 08:33:05;;;;;;;;;;;;;;;;;;6207707;23;19938;-58
2022/05/02 08:35:31;;;;;;;;;;;;;;;;;;6207629;23;20230;-58
2022/05/02 08:37:57;;;;;;;;;;;;;;;;;;6207626;23;19904;-59
2022/05/02 08:40:23;;;;;;;;;;;;;;;;;;6207086;23;19927;-58
2022/05/02 08:42:49;;;;;;;;;;;;;;;;;;6207338;23;19904;-58
2022/05/02 08:45:15;;;;;;;;;;;;;;;;;;6205562;23;19997;-58
2022/05/02 08:47:42;;;;;;;;;;;;;;;;;;6179931;23;20325;-58
2022/05/02 08:50:08;;;;;;;;;;;;;;;;;;6207696;23;19911;-58
2022/05/02 08:52:34;;;;;;;;;;;;;;;;;;6208480;23;19994;-58
2022/05/02 08:55:00;;;;;;;;;;;;;;;;;;6208660;23;19942;-58
2022/05/02 08:57:26;;;;;;;;;;;;;;;;;;6208500;23;19986;-58
2022/05/02 08:59:52;;;;;;;;;;;;;;;;;;6206934;23;19903;-58
2022/05/02 09:02:18;;;;;;;;;;;;;;;;;;6208210;23;19899;-58
2022/05/02 09:04:44;;;;;;;;;;;;;;;;;;6208521;23;19904;-58
2022/05/02 09:07:10;;;;;;;;;;;;;;;;;;6209317;23;20218;-58
2022/05/02 09:09:37;;;;;;;;;;;;;;;;;;6205433;23;19975;-58
2022/05/02 09:12:03;;;;;;;;;;;;;;;;;;6208426;23;19900;-57
2022/05/02 09:14:29;;;;;;;;;;;;;;;;;;6206665;23;20244;-58
2022/05/02 09:16:55;;;;;;;;;;;;;;;;;;6208185;23;19978;-58
2022/05/02 09:19:21;;;;;;;;;;;;;;;;;;6206901;23;19949;-58
2022/05/02 09:21:47;;;;;;;;;;;;;;;;;;6180801;23;19950;-58
2022/05/02 09:24:12;;;;;;;;;;;;;;;;;;6208112;23;19939;-58
2022/05/02 09:26:38;;;;;;;;;;;;;;;;;;6208255;23;19904;-58
2022/05/02 09:29:04;;;;;;;;;;;;;;;;;;6209838;23;19904;-59
2022/05/02 09:31:31;;;;;;;;;;;;;;;;;;6210105;23;19907;-59
2022/05/02 09:33:57;;;;;;;;;;;;;;;;;;6210213;23;19958;-58
2022/05/02 09:36:23;;;;;;;;;;;;;;;;;;6211300;23;19900;-58
2022/05/02 09:38:50;;;;;;;;;;;;;;;;;;6210569;23;19974;-58
2022/05/02 09:41:16;;;;;;;;;;;;;;;;;;6209123;23;19962;-58
2022/05/02 09:51:37;;;;;;;;;;;;;;;;;;6208425;23;19904;-59
2022/05/02 09:54:05;;;;;;;;;;;;;;;;;;6207263;23;19938;-59
2022/05/02 09:56:40;;;;;;;;;;;;;;;;;;6209253;23;19903;-59
2022/05/02 09:59:07;;;;;;;;;;;;;;;;;;6209083;23;20341;-59
2022/05/02 10:01:34;;;;;;;;;;;;;;;;;;6209454;23;19907;-59
2022/05/02 10:03:59;;;;;;;;;;;;;;;;;;6209782;23;19903;-59
2022/05/02 10:06:25;;;;;;;;;;;;;;;;;;6209131;23;19904;-59
2022/05/02 10:08:51;;;;;;;;;;;;;;;;;;6209104;23;19952;-58
2022/05/02 10:11:17;;;;;;;;;;;;;;;;;;6208365;23;19938;-60
2022/05/02 10:13:43;;;;;;;;;;;;;;;;;;6209275;23;19903;-61
2022/05/02 10:16:09;;;;;;;;;;;;;;;;;;6209455;23;19904;-60
2022/05/02 10:18:36;;;;;;;;;;;;;;;;;;6208795;23;19900;-59
2022/05/02 10:21:03;;;;;;;;;;;;;;;;;;6208795;23;19970;-57
2022/05/02 10:23:30;;;;;;;;;;;;;;;;;;6208866;23;20400;-57
2022/05/02 10:25:56;;;;;;;;;;;;;;;;;;6209450;23;19899;-57
2022/05/02 10:28:23;;;;;;;;;;;;;;;;;;6209152;23;20340;-57
2022/05/02 10:30:50;;;;;;;;;;;;;;;;;;6209059;23;19903;-57
2022/05/02 10:33:16;;;;;;;;;;;;;;;;;;6209078;23;19908;-57
2022/05/02 10:35:42;;;;;;;;;;;;;;;;;;6209148;23;19910;-57
2022/05/02 10:38:08;;;;;;;;;;;;;;;;;;6209132;23;19903;-57
2022/05/02 10:40:35;;;;;;;;;;;;;;;;;;6207977;23;19926;-57
2022/05/02 10:43:01;;;;;;;;;;;;;;;;;;6209238;23;19900;-57
2022/05/02 10:45:27;;;;;;;;;;;;;;;;;;6209387;23;19911;-57
2022/05/02 10:47:53;;;;;;;;;;;;;;;;;;6209008;23;20340;-57
2022/05/02 10:50:19;;;;;;;;;;;;;;;;;;6207772;23;19908;-57
2022/05/02 10:52:45;;;;;;;;;;;;;;;;;;6208302;23;19969;-57
2022/05/02 10:55:11;;;;;;;;;;;;;;;;;;6208471;23;19907;-57
2022/05/02 10:57:37;;;;;;;;;;;;;;;;;;6208007;23;19904;-57
2022/05/02 11:00:03;;;;;;;;;;;;;;;;;;6208071;23;19922;-57
2022/05/02 11:02:29;;;;;;;;;;;;;;;;;;6208018;23;19904;-57
2022/05/02 11:04:55;;;;;;;;;;;;;;;;;;6208311;23;19900;-57
2022/05/02 11:07:21;;;;;;;;;;;;;;;;;;6207733;23;19908;-57
2022/05/02 11:09:47;;;;;;;;;;;;;;;;;;6207975;23;20517;-57
2022/05/02 11:12:13;;;;;;;;;;;;;;;;;;6208458;23;19903;-57
2022/05/02 11:14:39;;;;;;;;;;;;;;;;;;6207961;23;19954;-58
2022/05/02 11:17:05;;;;;;;;;;;;;;;;;;6208839;23;19942;-57
2022/05/02 11:22:15;;;;;;;;;;;;;;;;;;6207643;23;20401;-57
2022/05/02 11:24:41;;;;;;;;;;;;;;;;;;6207591;23;19939;-57
2022/05/02 11:27:07;;;;;;;;;;;;;;;;;;6208560;23;20031;-58
2022/05/02 11:29:33;;;;;;;;;;;;;;;;;;6207882;23;19954;-57
2022/05/02 11:31:59;;;;;;;;;;;;;;;;;;6208872;23;19935;-57
2022/05/02 11:34:25;;;;;;;;;;;;;;;;;;6208518;23;19915;-57
2022/05/02 11:36:52;;;;;;;;;;;;;;;;;;6208145;23;20362;-58
2022/05/02 11:39:18;;;;;;;;;;;;;;;;;;6208034;23;19930;-57
2022/05/02 11:41:45;;;;;;;;;;;;;;;;;;6208122;23;19900;-58
2022/05/02 11:44:15;;;;;;;;;;;;;;;;;;6208427;23;19900;-57
2022/05/02 11:46:41;;;;;;;;;;;;;;;;;;6208106;23;19907;-57
2022/05/02 11:49:06;;;;;;;;;;;;;;;;;;6208345;23;19904;-57
2022/05/02 11:51:32;;;;;;;;;;;;;;;;;;6206420;23;19903;-58
2022/05/02 11:53:58;;;;;;;;;;;;;;;;;;6209308;23;19993;-58
2022/05/02 11:56:24;;;;;;;;;;;;;;;;;;6209708;23;19904;-57
2022/05/02 11:58:50;;;;;;;;;;;;;;;;;;6207766;23;19937;-57
2022/05/02 12:01:16;;;;;;;;;;;;;;;;;;6206505;23;19999;-57
2022/05/02 12:03:42;;;;;;;;;;;;;;;;;;6207363;23;19926;-57
2022/05/02 12:06:08;;;;;;;;;;;;;;;;;;6207771;23;19907;-58
2022/05/02 12:08:34;;;;;;;;;;;;;;;;;;6206852;23;19900;-58
2022/05/02 12:11:01;;;;;;;;;;;;;;;;;;6207633;23;19927;-58
2022/05/02 12:13:28;;;;;;;;;;;;;;;;;;6207890;23;19908;-57
2022/05/02 12:15:54;;;;;;;;;;;;;;;;;;6208464;23;19954;-57
2022/05/02 12:18:20;;;;;;;;;;;;;;;;;;6205831;23;20159;-57
2022/05/02 12:20:45;;;;;;;;;;;;;;;;;;6207264;23;19904;-57
2022/05/02 12:23:13;;;;;;;;;;;;;;;;;;6207594;23;20238;-57
2022/05/02 12:25:39;;;;;;;;;;;;;;;;;;6206956;23;19900;-57
2022/05/02 12:28:05;;;;;;;;;;;;;;;;;;6207637;23;19904;-58
2022/05/02 12:30:31;;;;;;;;;;;;;;;;;;6207126;23;19910;-58
2022/05/02 12:32:58;;;;;;;;;;;;;;;;;;6208196;23;19911;-58
2022/05/02 12:35:24;;;;;;;;;;;;;;;;;;6207339;23;19946;-58
2022/05/02 12:37:50;;;;;;;;;;;;;;;;;;6207462;23;20345;-58
2022/05/02 12:40:19;;;;;;;;;;;;;;;;;;6206769;23;19904;-58
2022/05/02 12:42:47;;;;;;;;;;;;;;;;;;6204632;23;19961;-58
2022/05/02 12:45:15;;;;;;;;;;;;;;;;;;6207533;23;19947;-58
2022/05/02 12:47:41;;;;;;;;;;;;;;;;;;6206472;23;19903;-58
2022/05/02 12:50:07;;;;;;;;;;;;;;;;;;6206988;23;20383;-61
2022/05/02 12:52:34;;;;;;;;;;;;;;;;;;6206087;23;19939;-58
2022/05/02 12:55:00;;;;;;;;;;;;;;;;;;6206789;23;19974;-58
2022/05/02 13:00:30;;;;;;;;;;;;;;;;;;6156670;23;19906;-58
2022/05/02 13:02:56;;;;;;;;;;;;;;;;;;6206153;23;19915;-58
2022/05/02 13:05:23;;;;;;;;;;;;;;;;;;6207661;23;19900;-58
2022/05/02 13:07:49;;;;;;;;;;;;;;;;;;6206596;23;19958;-57
2022/05/02 13:10:16;;;;;;;;;;;;;;;;;;6206790;23;19904;-57
2022/05/02 13:12:42;;;;;;;;;;;;;;;;;;6206962;23;20237;-57
2022/05/02 13:15:08;;;;;;;;;;;;;;;;;;6207314;23;20007;-57
2022/05/02 13:17:34;;;;;;;;;;;;;;;;;;6206275;23;19900;-58
2022/05/02 13:20:02;;;;;;;;;;;;;;;;;;6206987;23;19919;-57
2022/05/02 13:22:29;;;;;;;;;;;;;;;;;;6206770;23;20359;-57
2022/05/02 13:24:56;;;;;;;;;;;;;;;;;;6208056;23;19903;-58
2022/05/02 13:27:22;;;;;;;;;;;;;;;;;;6205844;23;19957;-58
2022/05/02 13:29:48;;;;;;;;;;;;;;;;;;6207641;23;19904;-58
2022/05/02 13:32:14;;;;;;;;;;;;;;;;;;6208654;23;19938;-57
2022/05/02 13:34:40;;;;;;;;;;;;;;;;;;6207420;23;20444;-57
2022/05/02 13:37:06;;;;;;;;;;;;;;;;;;6207985;23;19904;-58
2022/05/02 13:39:31;;;;;;;;;;;;;;;;;;6207262;23;19962;-58
2022/05/02 13:41:57;;;;;;;;;;;;;;;;;;6181682;23;19903;-59
2022/05/02 13:44:23;;;;;;;;;;;;;;;;;;6208788;23;19904;-58
2022/05/02 13:46:50;;;;;;;;;;;;;;;;;;6207856;23;19922;-57
2022/05/02 13:49:16;;;;;;;;;;;;;;;;;;6207368;23;19915;-59
2022/05/02 13:51:42;;;;;;;;;;;;;;;;;;6207252;23;19900;-59
2022/05/02 13:54:08;;;;;;;;;;;;;;;;;;6206950;23;19910;-59
2022/05/02 13:56:37;;;;;;;;;;;;;;;;;;6207358;23;19900;-58
2022/05/02 13:59:04;;;;;;;;;;;;;;;;;;6208239;23;19907;-60
2022/05/02 14:01:32;;;;;;;;;;;;;;;;;;6206993;23;19907;-60
2022/05/02 14:04:07;;;;;;;;;;;;;;;;;;6206651;23;20233;-60
2022/05/02 14:06:51;;;;;;;;;;;;;;;;;;6207922;23;20341;-60
2022/05/02 14:09:17;;;;;;;;;;;;;;;;;;6207779;23;20026;-60
2022/05/02 14:11:44;;;;;;;;;;;;;;;;;;6208298;23;19916;-60
2022/05/02 14:14:12;;;;;;;;;;;;;;;;;;6208386;23;19943;-60
2022/05/02 14:16:38;;;;;;;;;;;;;;;;;;6209938;23;20360;-60
2022/05/02 14:19:08;;;;;;;;;;;;;;;;;;6209753;23;19900;-59
2022/05/02 14:21:38;;;;;;;;;;;;;;;;;;6210128;23;19900;-59
2022/05/02 14:24:04;;;;;;;;;;;;;;;;;;6210082;23;19899;-60
2022/05/02 14:26:30;;;;;;;;;;;;;;;;;;6208638;23;20248;-60
2022/05/02 14:28:56;;;;;;;;;;;;;;;;;;6210277;23;19966;-59
2022/05/02 14:31:22;;;;;;;;;;;;;;;;;;6209886;23;19899;-60
2022/05/02 14:33:52;;;;;;;;;;;;;;;;;;6209892;23;19908;-60
2022/05/02 14:36:18;;;;;;;;;;;;;;;;;;6209908;23;19900;-59
2022/05/02 14:38:46;;;;;;;;;;;;;;;;;;6209694;23;20284;-57
2022/05/02 14:41:12;;;;;;;;;;;;;;;;;;6209893;23;19953;-58
2022/05/02 14:43:38;;;;;;;;;;;;;;;;;;6209645;23;19982;-58
2022/05/02 14:46:04;;;;;;;;;;;;;;;;;;6209936;23;20792;-59
2022/05/02 14:48:30;;;;;;;;;;;;;;;;;;6209490;23;19954;-59
2022/05/02 14:50:59;;;;;;;;;;;;;;;;;;6210634;23;19914;-60
2022/05/02 14:53:25;;;;;;;;;;;;;;;;;;6210162;23;19904;-60
2022/05/02 14:55:51;;;;;;;;;;;;;;;;;;6210056;23;20396;-59
2022/05/02 14:58:17;;;;;;;;;;;;;;;;;;6209383;23;19927;-60
2022/05/02 15:00:43;;;;;;;;;;;;;;;;;;6209573;23;19904;-62
2022/05/02 15:03:09;;;;;;;;;;;;;;;;;;6209339;23;19922;-59
2022/05/02 15:05:35;;;;;;;;;;;;;;;;;;6208844;23;19904;-59
2022/05/02 15:08:01;;;;;;;;;;;;;;;;;;6207814;23;19919;-59
2022/05/02 15:10:28;;;;;;;;;;;;;;;;;;6208697;23;19922;-59
2022/05/02 15:12:53;;;;;;;;;;;;;;;;;;6209756;23;19908;-59
2022/05/02 15:15:19;;;;;;;;;;;;;;;;;;6208005;23;19900;-59
2022/05/02 15:17:45;;;;;;;;;;;;;;;;;;6209321;23;19900;-59
2022/05/02 15:20:11;;;;;;;;;;;;;;;;;;6209536;23;19942;-59
2022/05/02 15:22:38;;;;;;;;;;;;;;;;;;6208642;23;19911;-59
2022/05/02 15:25:07;;;;;;;;;;;;;;;;;;6209418;23;20415;-59
2022/05/02 15:38:32;;;;;;;;;;;;;;;;;;6209536;23;19942;-58
2022/05/02 15:40:58;;;;;;;;;;;;;;;;;;6208923;23;19907;-58
2022/05/02 15:43:24;;;;;;;;;;;;;;;;;;6208904;23;19904;-58
2022/05/02 15:45:50;;;;;;;;;;;;;;;;;;6209365;23;19904;-58
2022/05/02 15:48:15;;;;;;;;;;;;;;;;;;6209594;23;19922;-58
2022/05/02 15:50:42;;;;;;;;;;;;;;;;;;6208991;23;19910;-58
2022/05/02 15:53:08;;;;;;;;;;;;;;;;;;6208305;23;19904;-57
2022/05/02 15:55:34;;;;;;;;;;;;;;;;;;6208322;23;19953;-58
2022/05/02 15:58:00;;;;;;;;;;;;;;;;;;6208618;23;19903;-58
2022/05/02 16:00:26;;;;;;;;;;;;;;;;;;6208676;23;19978;-57
2022/05/02 16:02:52;;;;;;;;;;;;;;;;;;6207896;23;19908;-57
2022/05/02 16:05:18;;;;;;;;;;;;;;;;;;6207075;23;19906;-58
2022/05/02 16:10:32;;;;;;;;;;;;;;;;;;6208964;23;19927;-58
2022/05/02 16:12:58;;;;;;;;;;;;;;;;;;6208027;23;19950;-58
2022/05/02 16:15:27;;;;;;;;;;;;;;;;;;6208593;23;20321;-59
2022/05/02 16:17:53;;;;;;;;;;;;;;;;;;6208494;23;19983;-59
2022/05/02 16:20:19;;;;;;;;;;;;;;;;;;6208674;23;19934;-59
2022/05/02 16:22:45;;;;;;;;;;;;;;;;;;6208491;23;19900;-59
2022/05/02 16:25:15;;;;;;;;;;;;;;;;;;6208761;23;19900;-59
2022/05/02 16:27:41;;;;;;;;;;;;;;;;;;6208453;23;19923;-59
2022/05/02 16:30:07;;;;;;;;;;;;;;;;;;6208025;23;19998;-59
2022/05/02 16:32:35;;;;;;;;;;;;;;;;;;6208501;23;19923;-59
2022/05/02 16:35:01;;;;;;;;;;;;;;;;;;6209692;23;19900;-60
2022/05/02 16:37:27;;;;;;;;;;;;;;;;;;6208332;23;19916;-60
2022/05/02 16:39:53;;;;;;;;;;;;;;;;;;6207800;23;20335;-59
2022/05/02 16:42:19;;;;;;;;;;;;;;;;;;6206646;23;19904;-59
2022/05/02 16:44:46;;;;;;;;;;;;;;;;;;6207235;23;19942;-59
2022/05/02 16:47:12;;;;;;;;;;;;;;;;;;6207599;23;19904;-59
2022/05/02 16:49:38;;;;;;;;;;;;;;;;;;6207612;23;20245;-59
2022/05/02 16:52:05;;;;;;;;;;;;;;;;;;6206793;23;19904;-60
2022/05/02 16:54:31;;;;;;;;;;;;;;;;;;6208162;23;19946;-57
2022/05/02 16:56:57;;;;;;;;;;;;;;;;;;6207641;23;19908;-57
2022/05/02 16:59:23;;;;;;;;;;;;;;;;;;6207577;23;19978;-58
2022/05/02 17:01:49;;;;;;;;;;;;;;;;;;6207002;23;19900;-58
2022/05/02 17:04:15;;;;;;;;;;;;;;;;;;6207732;23;19954;-58
2022/05/02 17:06:42;;;;;;;;;;;;;;;;;;6205916;23;19915;-58
2022/05/02 17:09:09;;;;;;;;;;;;;;;;;;6208074;23;19900;-58
2022/05/02 17:11:35;;;;;;;;;;;;;;;;;;6205907;23;20222;-59
2022/05/02 17:14:01;;;;;;;;;;;;;;;;;;6206768;23;19904;-58
2022/05/02 17:16:26;;;;;;;;;;;;;;;;;;6207267;23;19908;-58